Weather at Charles de Gaulle International Airport

Public forecast

Using degrees Celsius for public forecast. Weather courtesy of forecast.io.

Current aviation weather report (METAR) for Charles de Gaulle International Airport

Retrieved 2022/05/22 01:00 UTC (4 minutes ago):

LFPG 220100Z 04006KT CAVOK 14/11 Q1018 NOSIG

Aviation forecast (TAF) for Charles de Gaulle International Airport

Retrieved 2022-05-22 00:51 UTC (13 minutes ago):

TAF LFPG 212300Z 2200/2306 04008KT CAVOK TX25/2215Z TN12/2205Z PROB40 TEMPO 2221/2306 SCT070TCU PROB30 TEMPO 2221/2306 18015G25KT 4000 -TSRA SCT060CB